sensor_id;sensor_type;location;lat;lon;timestamp;P1;durP1;ratioP1;P2;durP2;ratioP2
11024;SDS011;22890;51.820;8.682;2022-07-29T00:01:49;11.50;;;1.60;;
11024;SDS011;22890;51.820;8.682;2022-07-29T00:04:18;4.87;;;1.70;;
11024;SDS011;22890;51.820;8.682;2022-07-29T00:06:47;3.67;;;1.17;;
11024;SDS011;22890;51.820;8.682;2022-07-29T00:09:13;2.97;;;1.50;;
11024;SDS011;22890;51.820;8.682;2022-07-29T00:11:40;3.93;;;1.73;;
11024;SDS011;22890;51.820;8.682;2022-07-29T00:14:07;4.73;;;1.77;;
11024;SDS011;22890;51.820;8.682;2022-07-29T00:16:34;3.40;;;1.30;;
11024;SDS011;22890;51.820;8.682;2022-07-29T00:19:01;3.23;;;1.30;;
11024;SDS011;22890;51.820;8.682;2022-07-29T00:21:29;2.30;;;1.40;;
11024;SDS011;22890;51.820;8.682;2022-07-29T00:23:55;4.50;;;1.37;;
11024;SDS011;22890;51.820;8.682;2022-07-29T00:26:22;4.90;;;1.57;;
11024;SDS011;22890;51.820;8.682;2022-07-29T00:28:49;4.53;;;1.80;;
11024;SDS011;22890;51.820;8.682;2022-07-29T00:31:15;2.10;;;1.43;;
11024;SDS011;22890;51.820;8.682;2022-07-29T00:33:42;4.07;;;1.80;;
11024;SDS011;22890;51.820;8.682;2022-07-29T00:36:08;5.63;;;1.97;;
11024;SDS011;22890;51.820;8.682;2022-07-29T00:38:35;2.70;;;1.20;;
11024;SDS011;22890;51.820;8.682;2022-07-29T00:41:02;3.23;;;1.50;;
11024;SDS011;22890;51.820;8.682;2022-07-29T00:43:28;3.63;;;1.27;;
11024;SDS011;22890;51.820;8.682;2022-07-29T00:45:55;3.30;;;1.30;;
11024;SDS011;22890;51.820;8.682;2022-07-29T00:48:22;2.57;;;1.53;;
11024;SDS011;22890;51.820;8.682;2022-07-29T00:50:49;2.03;;;1.43;;
11024;SDS011;22890;51.820;8.682;2022-07-29T00:53:16;3.63;;;1.40;;
11024;SDS011;22890;51.820;8.682;2022-07-29T00:55:42;2.03;;;1.30;;
11024;SDS011;22890;51.820;8.682;2022-07-29T00:58:09;2.17;;;1.10;;
11024;SDS011;22890;51.820;8.682;2022-07-29T01:00:38;3.57;;;1.20;;
11024;SDS011;22890;51.820;8.682;2022-07-29T01:03:07;4.33;;;1.70;;
11024;SDS011;22890;51.820;8.682;2022-07-29T01:05:34;8.50;;;1.33;;
11024;SDS011;22890;51.820;8.682;2022-07-29T01:08:16;4.50;;;0.80;;
11024;SDS011;22890;51.820;8.682;2022-07-29T01:10:44;4.17;;;1.20;;
11024;SDS011;22890;51.820;8.682;2022-07-29T01:13:13;3.23;;;1.00;;
11024;SDS011;22890;51.820;8.682;2022-07-29T01:15:46;4.07;;;1.13;;
11024;SDS011;22890;51.820;8.682;2022-07-29T01:18:18;2.93;;;1.20;;
11024;SDS011;22890;51.820;8.682;2022-07-29T01:21:16;3.40;;;1.37;;
11024;SDS011;22890;51.820;8.682;2022-07-29T01:24:23;3.40;;;1.13;;
11024;SDS011;22890;51.820;8.682;2022-07-29T01:29:41;2.87;;;1.20;;
11024;SDS011;22890;51.820;8.682;2022-07-29T01:32:19;2.27;;;0.90;;
11024;SDS011;22890;51.820;8.682;2022-07-29T01:34:58;2.60;;;1.17;;
11024;SDS011;22890;51.820;8.682;2022-07-29T01:37:34;4.30;;;0.77;;
11024;SDS011;22890;51.820;8.682;2022-07-29T01:40:19;4.20;;;1.07;;
11024;SDS011;22890;51.820;8.682;2022-07-29T01:42:55;2.03;;;0.90;;
11024;SDS011;22890;51.820;8.682;2022-07-29T01:45:36;1.63;;;1.07;;
11024;SDS011;22890;51.820;8.682;2022-07-29T01:48:21;2.97;;;1.10;;
11024;SDS011;22890;51.820;8.682;2022-07-29T01:50:53;2.13;;;0.90;;
11024;SDS011;22890;51.820;8.682;2022-07-29T01:53:36;8.40;;;1.47;;
11024;SDS011;22890;51.820;8.682;2022-07-29T01:56:08;2.00;;;1.00;;
11024;SDS011;22890;51.820;8.682;2022-07-29T01:58:37;2.17;;;1.00;;
11024;SDS011;22890;51.820;8.682;2022-07-29T02:01:08;5.00;;;1.07;;
11024;SDS011;22890;51.820;8.682;2022-07-29T02:03:37;2.20;;;1.00;;
11024;SDS011;22890;51.820;8.682;2022-07-29T02:06:05;2.40;;;1.17;;
11024;SDS011;22890;51.820;8.682;2022-07-29T02:08:33;3.30;;;1.13;;
11024;SDS011;22890;51.820;8.682;2022-07-29T02:11:01;1.83;;;1.03;;
11024;SDS011;22890;51.820;8.682;2022-07-29T02:13:30;2.37;;;1.00;;
11024;SDS011;22890;51.820;8.682;2022-07-29T02:16:00;2.50;;;1.20;;
11024;SDS011;22890;51.820;8.682;2022-07-29T02:18:28;3.70;;;0.90;;
11024;SDS011;22890;51.820;8.682;2022-07-29T02:20:57;1.97;;;1.17;;
11024;SDS011;22890;51.820;8.682;2022-07-29T02:23:25;2.93;;;1.17;;
11024;SDS011;22890;51.820;8.682;2022-07-29T02:25:53;3.10;;;1.10;;
11024;SDS011;22890;51.820;8.682;2022-07-29T02:28:22;4.73;;;1.20;;
11024;SDS011;22890;51.820;8.682;2022-07-29T02:30:52;4.17;;;1.30;;
11024;SDS011;22890;51.820;8.682;2022-07-29T02:33:25;4.33;;;1.30;;
11024;SDS011;22890;51.820;8.682;2022-07-29T02:35:52;2.07;;;1.00;;
11024;SDS011;22890;51.820;8.682;2022-07-29T02:38:20;2.37;;;1.00;;
11024;SDS011;22890;51.820;8.682;2022-07-29T02:41:13;6.73;;;1.50;;
11024;SDS011;22890;51.820;8.682;2022-07-29T02:43:47;1.63;;;1.10;;
11024;SDS011;22890;51.820;8.682;2022-07-29T02:46:18;1.50;;;1.07;;
11024;SDS011;22890;51.820;8.682;2022-07-29T02:48:56;1.97;;;1.07;;
11024;SDS011;22890;51.820;8.682;2022-07-29T02:51:28;1.90;;;1.10;;
11024;SDS011;22890;51.820;8.682;2022-07-29T02:54:10;4.03;;;1.43;;
11024;SDS011;22890;51.820;8.682;2022-07-29T02:56:44;2.20;;;1.10;;
11024;SDS011;22890;51.820;8.682;2022-07-29T02:59:12;2.50;;;1.23;;
11024;SDS011;22890;51.820;8.682;2022-07-29T03:01:40;5.27;;;1.57;;
11024;SDS011;22890;51.820;8.682;2022-07-29T03:04:09;1.77;;;1.10;;
11024;SDS011;22890;51.820;8.682;2022-07-29T03:06:38;2.47;;;1.20;;
11024;SDS011;22890;51.820;8.682;2022-07-29T03:09:07;2.43;;;1.03;;
11024;SDS011;22890;51.820;8.682;2022-07-29T03:11:38;3.97;;;1.20;;
11024;SDS011;22890;51.820;8.682;2022-07-29T03:14:18;3.57;;;1.20;;
11024;SDS011;22890;51.820;8.682;2022-07-29T03:16:46;5.57;;;1.47;;
11024;SDS011;22890;51.820;8.682;2022-07-29T03:19:14;4.30;;;1.20;;
11024;SDS011;22890;51.820;8.682;2022-07-29T03:21:42;1.77;;;1.20;;
11024;SDS011;22890;51.820;8.682;2022-07-29T03:24:08;3.13;;;1.27;;
11024;SDS011;22890;51.820;8.682;2022-07-29T03:26:36;6.47;;;1.37;;
11024;SDS011;22890;51.820;8.682;2022-07-29T03:29:03;3.73;;;1.03;;
11024;SDS011;22890;51.820;8.682;2022-07-29T03:31:30;2.20;;;0.80;;
11024;SDS011;22890;51.820;8.682;2022-07-29T03:33:58;4.37;;;1.07;;
11024;SDS011;22890;51.820;8.682;2022-07-29T03:36:25;4.07;;;1.30;;
11024;SDS011;22890;51.820;8.682;2022-07-29T03:38:52;2.33;;;1.00;;
11024;SDS011;22890;51.820;8.682;2022-07-29T03:41:19;3.37;;;1.17;;
11024;SDS011;22890;51.820;8.682;2022-07-29T03:43:48;3.33;;;1.00;;
11024;SDS011;22890;51.820;8.682;2022-07-29T03:46:17;1.70;;;0.87;;
11024;SDS011;22890;51.820;8.682;2022-07-29T03:48:48;1.33;;;1.20;;
11024;SDS011;22890;51.820;8.682;2022-07-29T03:51:18;2.70;;;1.07;;
11024;SDS011;22890;51.820;8.682;2022-07-29T03:53:59;5.40;;;1.40;;
11024;SDS011;22890;51.820;8.682;2022-07-29T03:56:40;3.33;;;1.07;;
11024;SDS011;22890;51.820;8.682;2022-07-29T03:59:10;3.90;;;1.27;;
11024;SDS011;22890;51.820;8.682;2022-07-29T04:01:38;4.33;;;0.90;;
11024;SDS011;22890;51.820;8.682;2022-07-29T04:04:06;5.30;;;1.77;;
11024;SDS011;22890;51.820;8.682;2022-07-29T04:06:40;1.97;;;1.23;;
11024;SDS011;22890;51.820;8.682;2022-07-29T04:09:08;1.43;;;0.90;;
11024;SDS011;22890;51.820;8.682;2022-07-29T04:11:35;2.17;;;1.13;;
11024;SDS011;22890;51.820;8.682;2022-07-29T04:14:26;2.47;;;1.13;;
11024;SDS011;22890;51.820;8.682;2022-07-29T04:16:53;1.47;;;1.10;;
11024;SDS011;22890;51.820;8.682;2022-07-29T04:19:19;3.37;;;1.30;;
11024;SDS011;22890;51.820;8.682;2022-07-29T04:21:46;1.57;;;1.30;;
11024;SDS011;22890;51.820;8.682;2022-07-29T04:24:13;2.83;;;1.20;;
11024;SDS011;22890;51.820;8.682;2022-07-29T04:26:40;2.27;;;1.13;;
11024;SDS011;22890;51.820;8.682;2022-07-29T04:29:07;1.63;;;1.20;;
11024;SDS011;22890;51.820;8.682;2022-07-29T04:31:33;1.73;;;1.00;;
11024;SDS011;22890;51.820;8.682;2022-07-29T04:34:00;7.40;;;1.20;;
11024;SDS011;22890;51.820;8.682;2022-07-29T04:36:27;1.97;;;0.90;;
11024;SDS011;22890;51.820;8.682;2022-07-29T04:38:55;3.63;;;1.20;;
11024;SDS011;22890;51.820;8.682;2022-07-29T04:41:22;3.90;;;1.07;;
11024;SDS011;22890;51.820;8.682;2022-07-29T04:43:57;3.63;;;1.40;;
11024;SDS011;22890;51.820;8.682;2022-07-29T04:46:26;3.73;;;1.00;;
11024;SDS011;22890;51.820;8.682;2022-07-29T04:48:53;5.43;;;1.17;;
11024;SDS011;22890;51.820;8.682;2022-07-29T04:51:20;2.07;;;1.00;;
11024;SDS011;22890;51.820;8.682;2022-07-29T04:53:47;6.17;;;1.50;;
11024;SDS011;22890;51.820;8.682;2022-07-29T04:56:13;1.37;;;1.03;;
11024;SDS011;22890;51.820;8.682;2022-07-29T04:58:40;1.60;;;1.13;;
11024;SDS011;22890;51.820;8.682;2022-07-29T05:01:07;1.20;;;0.87;;
11024;SDS011;22890;51.820;8.682;2022-07-29T05:03:33;5.77;;;0.90;;
11024;SDS011;22890;51.820;8.682;2022-07-29T05:06:00;3.07;;;1.23;;
11024;SDS011;22890;51.820;8.682;2022-07-29T05:08:27;3.77;;;1.10;;
11024;SDS011;22890;51.820;8.682;2022-07-29T05:10:53;3.03;;;1.00;;
11024;SDS011;22890;51.820;8.682;2022-07-29T05:13:20;4.30;;;1.60;;
11024;SDS011;22890;51.820;8.682;2022-07-29T05:15:47;2.20;;;1.23;;
11024;SDS011;22890;51.820;8.682;2022-07-29T05:18:13;2.27;;;1.30;;
11024;SDS011;22890;51.820;8.682;2022-07-29T05:20:40;3.33;;;1.50;;
11024;SDS011;22890;51.820;8.682;2022-07-29T05:23:07;4.03;;;1.00;;
11024;SDS011;22890;51.820;8.682;2022-07-29T05:25:33;3.13;;;1.03;;
11024;SDS011;22890;51.820;8.682;2022-07-29T05:28:09;2.37;;;1.10;;
11024;SDS011;22890;51.820;8.682;2022-07-29T05:30:36;4.43;;;1.10;;
11024;SDS011;22890;51.820;8.682;2022-07-29T05:33:03;1.13;;;1.00;;
11024;SDS011;22890;51.820;8.682;2022-07-29T05:35:29;2.17;;;1.10;;
11024;SDS011;22890;51.820;8.682;2022-07-29T05:37:56;2.83;;;1.23;;
11024;SDS011;22890;51.820;8.682;2022-07-29T05:40:23;3.13;;;1.03;;
11024;SDS011;22890;51.820;8.682;2022-07-29T05:42:49;2.27;;;1.03;;
11024;SDS011;22890;51.820;8.682;2022-07-29T05:45:16;7.07;;;1.50;;
11024;SDS011;22890;51.820;8.682;2022-07-29T05:47:43;1.50;;;0.90;;
11024;SDS011;22890;51.820;8.682;2022-07-29T05:50:09;3.13;;;1.00;;
11024;SDS011;22890;51.820;8.682;2022-07-29T05:52:36;1.53;;;0.90;;
11024;SDS011;22890;51.820;8.682;2022-07-29T05:55:03;3.33;;;1.03;;
11024;SDS011;22890;51.820;8.682;2022-07-29T05:57:31;2.80;;;1.10;;
11024;SDS011;22890;51.820;8.682;2022-07-29T05:59:58;3.57;;;1.37;;
11024;SDS011;22890;51.820;8.682;2022-07-29T06:02:25;3.47;;;1.37;;
11024;SDS011;22890;51.820;8.682;2022-07-29T06:04:51;2.10;;;0.93;;
11024;SDS011;22890;51.820;8.682;2022-07-29T06:07:18;3.57;;;1.40;;
11024;SDS011;22890;51.820;8.682;2022-07-29T06:09:45;1.30;;;1.00;;
11024;SDS011;22890;51.820;8.682;2022-07-29T06:12:12;4.67;;;1.20;;
11024;SDS011;22890;51.820;8.682;2022-07-29T06:14:38;1.50;;;1.00;;
11024;SDS011;22890;51.820;8.682;2022-07-29T06:17:05;3.50;;;1.30;;
11024;SDS011;22890;51.820;8.682;2022-07-29T06:19:34;3.60;;;1.50;;
11024;SDS011;22890;51.820;8.682;2022-07-29T06:22:01;3.63;;;1.50;;
11024;SDS011;22890;51.820;8.682;2022-07-29T06:24:28;5.87;;;1.40;;
11024;SDS011;22890;51.820;8.682;2022-07-29T06:26:55;2.80;;;1.20;;
11024;SDS011;22890;51.820;8.682;2022-07-29T06:29:22;2.63;;;1.13;;
11024;SDS011;22890;51.820;8.682;2022-07-29T06:31:48;4.93;;;1.43;;
11024;SDS011;22890;51.820;8.682;2022-07-29T06:34:15;3.37;;;1.20;;
11024;SDS011;22890;51.820;8.682;2022-07-29T06:36:42;3.73;;;1.47;;
11024;SDS011;22890;51.820;8.682;2022-07-29T06:39:11;4.07;;;1.03;;
11024;SDS011;22890;51.820;8.682;2022-07-29T06:41:38;2.97;;;1.17;;
11024;SDS011;22890;51.820;8.682;2022-07-29T06:44:04;3.23;;;1.30;;
11024;SDS011;22890;51.820;8.682;2022-07-29T06:46:31;2.83;;;0.83;;
11024;SDS011;22890;51.820;8.682;2022-07-29T06:48:58;4.60;;;1.20;;
11024;SDS011;22890;51.820;8.682;2022-07-29T06:51:27;7.27;;;1.57;;
11024;SDS011;22890;51.820;8.682;2022-07-29T06:53:54;3.20;;;1.03;;
11024;SDS011;22890;51.820;8.682;2022-07-29T06:56:28;5.37;;;1.30;;
11024;SDS011;22890;51.820;8.682;2022-07-29T06:59:05;2.17;;;1.50;;
11024;SDS011;22890;51.820;8.682;2022-07-29T07:01:33;2.00;;;1.23;;
11024;SDS011;22890;51.820;8.682;2022-07-29T07:04:01;3.23;;;0.90;;
11024;SDS011;22890;51.820;8.682;2022-07-29T07:06:27;2.10;;;1.47;;
11024;SDS011;22890;51.820;8.682;2022-07-29T07:08:54;4.93;;;1.47;;
11024;SDS011;22890;51.820;8.682;2022-07-29T07:11:21;1.73;;;1.10;;
11024;SDS011;22890;51.820;8.682;2022-07-29T07:13:47;2.07;;;1.40;;
11024;SDS011;22890;51.820;8.682;2022-07-29T07:16:14;5.13;;;1.20;;
11024;SDS011;22890;51.820;8.682;2022-07-29T07:18:41;2.00;;;1.03;;
11024;SDS011;22890;51.820;8.682;2022-07-29T07:21:08;1.47;;;1.10;;
11024;SDS011;22890;51.820;8.682;2022-07-29T07:23:34;2.37;;;1.00;;
11024;SDS011;22890;51.820;8.682;2022-07-29T07:26:01;2.80;;;1.53;;
11024;SDS011;22890;51.820;8.682;2022-07-29T07:28:29;3.03;;;1.37;;
11024;SDS011;22890;51.820;8.682;2022-07-29T07:30:55;3.80;;;1.20;;
11024;SDS011;22890;51.820;8.682;2022-07-29T07:33:22;3.80;;;1.20;;
11024;SDS011;22890;51.820;8.682;2022-07-29T07:35:49;3.37;;;1.47;;
11024;SDS011;22890;51.820;8.682;2022-07-29T07:38:15;2.13;;;1.27;;
11024;SDS011;22890;51.820;8.682;2022-07-29T07:40:42;4.00;;;1.10;;
11024;SDS011;22890;51.820;8.682;2022-07-29T07:43:09;3.30;;;1.30;;
11024;SDS011;22890;51.820;8.682;2022-07-29T07:45:35;1.67;;;1.00;;
11024;SDS011;22890;51.820;8.682;2022-07-29T07:48:03;1.43;;;0.83;;
11024;SDS011;22890;51.820;8.682;2022-07-29T07:50:31;1.67;;;1.03;;
11024;SDS011;22890;51.820;8.682;2022-07-29T07:52:57;4.57;;;1.10;;
11024;SDS011;22890;51.820;8.682;2022-07-29T07:55:24;4.13;;;1.40;;
11024;SDS011;22890;51.820;8.682;2022-07-29T07:57:52;5.60;;;1.57;;
11024;SDS011;22890;51.820;8.682;2022-07-29T08:00:20;3.63;;;1.20;;
11024;SDS011;22890;51.820;8.682;2022-07-29T08:02:49;3.83;;;1.40;;
11024;SDS011;22890;51.820;8.682;2022-07-29T08:05:16;3.07;;;1.20;;
11024;SDS011;22890;51.820;8.682;2022-07-29T08:07:44;5.33;;;1.60;;
11024;SDS011;22890;51.820;8.682;2022-07-29T08:10:13;5.57;;;1.60;;
11024;SDS011;22890;51.820;8.682;2022-07-29T08:12:41;4.77;;;1.73;;
11024;SDS011;22890;51.820;8.682;2022-07-29T08:15:08;3.93;;;1.60;;
11024;SDS011;22890;51.820;8.682;2022-07-29T08:17:35;3.80;;;1.30;;
11024;SDS011;22890;51.820;8.682;2022-07-29T08:20:02;4.50;;;1.40;;
11024;SDS011;22890;51.820;8.682;2022-07-29T08:22:29;4.63;;;1.17;;
11024;SDS011;22890;51.820;8.682;2022-07-29T08:24:56;2.50;;;1.20;;
11024;SDS011;22890;51.820;8.682;2022-07-29T08:27:22;6.33;;;1.50;;
11024;SDS011;22890;51.820;8.682;2022-07-29T08:30:08;1.87;;;1.10;;
11024;SDS011;22890;51.820;8.682;2022-07-29T08:32:36;3.57;;;1.40;;
11024;SDS011;22890;51.820;8.682;2022-07-29T08:35:19;4.30;;;1.60;;
11024;SDS011;22890;51.820;8.682;2022-07-29T08:37:46;3.50;;;1.57;;
11024;SDS011;22890;51.820;8.682;2022-07-29T08:40:13;4.23;;;1.20;;
11024;SDS011;22890;51.820;8.682;2022-07-29T08:42:40;7.37;;;1.80;;
11024;SDS011;22890;51.820;8.682;2022-07-29T08:45:07;4.20;;;1.53;;
11024;SDS011;22890;51.820;8.682;2022-07-29T08:47:34;2.83;;;1.20;;
11024;SDS011;22890;51.820;8.682;2022-07-29T08:50:06;4.13;;;1.90;;
11024;SDS011;22890;51.820;8.682;2022-07-29T08:52:38;4.70;;;1.37;;
11024;SDS011;22890;51.820;8.682;2022-07-29T08:55:07;3.97;;;1.50;;
11024;SDS011;22890;51.820;8.682;2022-07-29T08:57:35;3.07;;;1.33;;
11024;SDS011;22890;51.820;8.682;2022-07-29T09:00:16;3.77;;;1.10;;
11024;SDS011;22890;51.820;8.682;2022-07-29T09:02:44;4.37;;;1.37;;
11024;SDS011;22890;51.820;8.682;2022-07-29T09:05:17;2.53;;;1.60;;
11024;SDS011;22890;51.820;8.682;2022-07-29T09:07:45;3.27;;;1.33;;
11024;SDS011;22890;51.820;8.682;2022-07-29T09:14:40;5.00;;;1.20;;
11024;SDS011;22890;51.820;8.682;2022-07-29T09:17:07;6.70;;;1.43;;
11024;SDS011;22890;51.820;8.682;2022-07-29T09:19:34;1.63;;;1.20;;
11024;SDS011;22890;51.820;8.682;2022-07-29T09:22:03;3.53;;;1.30;;
11024;SDS011;22890;51.820;8.682;2022-07-29T09:27:01;9.87;;;1.73;;
11024;SDS011;22890;51.820;8.682;2022-07-29T09:29:28;3.33;;;1.13;;
11024;SDS011;22890;51.820;8.682;2022-07-29T09:31:59;3.57;;;1.70;;
11024;SDS011;22890;51.820;8.682;2022-07-29T09:34:27;2.40;;;1.67;;
11024;SDS011;22890;51.820;8.682;2022-07-29T09:36:56;3.57;;;1.30;;
11024;SDS011;22890;51.820;8.682;2022-07-29T09:39:27;3.13;;;1.40;;
11024;SDS011;22890;51.820;8.682;2022-07-29T09:41:57;4.10;;;1.10;;
11024;SDS011;22890;51.820;8.682;2022-07-29T09:44:26;7.00;;;1.37;;
11024;SDS011;22890;51.820;8.682;2022-07-29T09:49:35;3.70;;;1.20;;
11024;SDS011;22890;51.820;8.682;2022-07-29T09:52:16;4.20;;;1.57;;
11024;SDS011;22890;51.820;8.682;2022-07-29T09:54:42;7.87;;;1.10;;
11024;SDS011;22890;51.820;8.682;2022-07-29T09:57:21;1.50;;;1.03;;
11024;SDS011;22890;51.820;8.682;2022-07-29T10:02:52;1.30;;;1.20;;
11024;SDS011;22890;51.820;8.682;2022-07-29T10:05:27;3.23;;;1.57;;
11024;SDS011;22890;51.820;8.682;2022-07-29T10:08:02;5.50;;;1.80;;
11024;SDS011;22890;51.820;8.682;2022-07-29T10:10:31;2.03;;;1.17;;
11024;SDS011;22890;51.820;8.682;2022-07-29T10:13:03;3.73;;;1.20;;
11024;SDS011;22890;51.820;8.682;2022-07-29T10:15:38;4.27;;;1.17;;
11024;SDS011;22890;51.820;8.682;2022-07-29T10:18:11;2.23;;;1.37;;
11024;SDS011;22890;51.820;8.682;2022-07-29T10:20:39;2.50;;;1.37;;
11024;SDS011;22890;51.820;8.682;2022-07-29T10:23:06;4.10;;;1.40;;
11024;SDS011;22890;51.820;8.682;2022-07-29T10:25:33;3.63;;;1.50;;
11024;SDS011;22890;51.820;8.682;2022-07-29T10:27:59;4.23;;;2.23;;
11024;SDS011;22890;51.820;8.682;2022-07-29T10:30:26;4.53;;;1.27;;
11024;SDS011;22890;51.820;8.682;2022-07-29T10:38:43;3.50;;;1.30;;
11024;SDS011;22890;51.820;8.682;2022-07-29T10:44:05;1.90;;;1.30;;
11024;SDS011;22890;51.820;8.682;2022-07-29T10:46:42;6.20;;;1.47;;
11024;SDS011;22890;51.820;8.682;2022-07-29T10:49:16;3.30;;;1.50;;
11024;SDS011;22890;51.820;8.682;2022-07-29T10:54:17;3.33;;;1.50;;
11024;SDS011;22890;51.820;8.682;2022-07-29T10:56:45;8.50;;;1.73;;
11024;SDS011;22890;51.820;8.682;2022-07-29T11:01:47;2.53;;;1.60;;
11024;SDS011;22890;51.820;8.682;2022-07-29T11:07:12;4.97;;;1.40;;
11024;SDS011;22890;51.820;8.682;2022-07-29T11:09:40;2.50;;;1.50;;
11024;SDS011;22890;51.820;8.682;2022-07-29T11:15:05;3.60;;;1.47;;
11024;SDS011;22890;51.820;8.682;2022-07-29T11:20:41;1.80;;;1.20;;
11024;SDS011;22890;51.820;8.682;2022-07-29T11:28:50;3.47;;;1.50;;
11024;SDS011;22890;51.820;8.682;2022-07-29T11:31:38;3.43;;;1.40;;
11024;SDS011;22890;51.820;8.682;2022-07-29T11:44:59;5.07;;;1.70;;
11024;SDS011;22890;51.820;8.682;2022-07-29T11:47:53;4.90;;;1.73;;
11024;SDS011;22890;51.820;8.682;2022-07-29T11:53:02;2.13;;;1.80;;
11024;SDS011;22890;51.820;8.682;2022-07-29T11:55:37;7.50;;;2.00;;
11024;SDS011;22890;51.820;8.682;2022-07-29T11:58:20;4.37;;;1.63;;
11024;SDS011;22890;51.820;8.682;2022-07-29T12:00:51;5.87;;;1.50;;
11024;SDS011;22890;51.820;8.682;2022-07-29T12:03:25;2.13;;;1.73;;
11024;SDS011;22890;51.820;8.682;2022-07-29T12:06:01;3.83;;;1.50;;
11024;SDS011;22890;51.820;8.682;2022-07-29T12:08:48;4.53;;;1.90;;
11024;SDS011;22890;51.820;8.682;2022-07-29T12:11:16;5.03;;;2.03;;
11024;SDS011;22890;51.820;8.682;2022-07-29T12:13:46;7.60;;;2.20;;
11024;SDS011;22890;51.820;8.682;2022-07-29T12:16:14;4.70;;;1.73;;
11024;SDS011;22890;51.820;8.682;2022-07-29T12:18:56;2.83;;;1.80;;
11024;SDS011;22890;51.820;8.682;2022-07-29T12:21:28;4.07;;;1.47;;
11024;SDS011;22890;51.820;8.682;2022-07-29T12:23:56;3.17;;;1.60;;
11024;SDS011;22890;51.820;8.682;2022-07-29T12:26:34;5.03;;;1.57;;
11024;SDS011;22890;51.820;8.682;2022-07-29T12:29:01;4.10;;;1.80;;
11024;SDS011;22890;51.820;8.682;2022-07-29T12:31:28;4.37;;;1.80;;
11024;SDS011;22890;51.820;8.682;2022-07-29T12:34:13;5.37;;;1.90;;
11024;SDS011;22890;51.820;8.682;2022-07-29T12:36:41;1.97;;;1.40;;
11024;SDS011;22890;51.820;8.682;2022-07-29T12:39:09;3.07;;;1.60;;
11024;SDS011;22890;51.820;8.682;2022-07-29T12:41:37;2.30;;;1.70;;
11024;SDS011;22890;51.820;8.682;2022-07-29T12:44:05;5.60;;;1.87;;
11024;SDS011;22890;51.820;8.682;2022-07-29T12:46:31;3.13;;;1.40;;
11024;SDS011;22890;51.820;8.682;2022-07-29T12:48:58;4.40;;;2.27;;
11024;SDS011;22890;51.820;8.682;2022-07-29T12:51:35;4.80;;;1.80;;
11024;SDS011;22890;51.820;8.682;2022-07-29T12:54:08;2.77;;;1.60;;
11024;SDS011;22890;51.820;8.682;2022-07-29T12:56:37;3.93;;;1.90;;
11024;SDS011;22890;51.820;8.682;2022-07-29T13:01:39;3.47;;;1.63;;
11024;SDS011;22890;51.820;8.682;2022-07-29T13:04:06;5.37;;;2.03;;
11024;SDS011;22890;51.820;8.682;2022-07-29T13:06:40;3.33;;;1.73;;
11024;SDS011;22890;51.820;8.682;2022-07-29T13:09:15;3.23;;;1.80;;
11024;SDS011;22890;51.820;8.682;2022-07-29T13:11:45;2.93;;;1.80;;
11024;SDS011;22890;51.820;8.682;2022-07-29T13:14:29;3.67;;;1.70;;
11024;SDS011;22890;51.820;8.682;2022-07-29T13:17:14;6.13;;;1.90;;
11024;SDS011;22890;51.820;8.682;2022-07-29T13:19:43;5.10;;;1.83;;
11024;SDS011;22890;51.820;8.682;2022-07-29T13:22:34;3.03;;;1.60;;
11024;SDS011;22890;51.820;8.682;2022-07-29T13:25:01;2.30;;;2.00;;
11024;SDS011;22890;51.820;8.682;2022-07-29T13:27:28;3.87;;;2.00;;
11024;SDS011;22890;51.820;8.682;2022-07-29T13:29:58;3.63;;;2.00;;
11024;SDS011;22890;51.820;8.682;2022-07-29T13:32:27;4.77;;;2.00;;
11024;SDS011;22890;51.820;8.682;2022-07-29T13:34:56;6.97;;;2.50;;
11024;SDS011;22890;51.820;8.682;2022-07-29T13:37:25;3.93;;;2.40;;
11024;SDS011;22890;51.820;8.682;2022-07-29T13:39:52;3.07;;;2.00;;
11024;SDS011;22890;51.820;8.682;2022-07-29T13:42:20;3.13;;;2.13;;
11024;SDS011;22890;51.820;8.682;2022-07-29T13:44:46;6.27;;;2.17;;
11024;SDS011;22890;51.820;8.682;2022-07-29T13:47:14;2.40;;;1.93;;
11024;SDS011;22890;51.820;8.682;2022-07-29T13:49:42;2.20;;;1.67;;
11024;SDS011;22890;51.820;8.682;2022-07-29T13:52:08;2.90;;;2.20;;
11024;SDS011;22890;51.820;8.682;2022-07-29T13:54:35;6.00;;;2.30;;
11024;SDS011;22890;51.820;8.682;2022-07-29T13:57:08;2.17;;;1.80;;
11024;SDS011;22890;51.820;8.682;2022-07-29T13:59:36;3.07;;;2.10;;
11024;SDS011;22890;51.820;8.682;2022-07-29T14:02:03;3.03;;;2.00;;
11024;SDS011;22890;51.820;8.682;2022-07-29T14:04:31;2.57;;;1.67;;
11024;SDS011;22890;51.820;8.682;2022-07-29T14:06:58;4.33;;;2.37;;
11024;SDS011;22890;51.820;8.682;2022-07-29T14:09:29;3.67;;;2.10;;
11024;SDS011;22890;51.820;8.682;2022-07-29T14:12:06;2.17;;;1.87;;
11024;SDS011;22890;51.820;8.682;2022-07-29T14:14:33;4.50;;;2.07;;
11024;SDS011;22890;51.820;8.682;2022-07-29T14:17:01;2.30;;;2.10;;
11024;SDS011;22890;51.820;8.682;2022-07-29T14:19:29;2.63;;;1.80;;
11024;SDS011;22890;51.820;8.682;2022-07-29T14:21:57;4.20;;;2.20;;
11024;SDS011;22890;51.820;8.682;2022-07-29T14:24:25;5.27;;;2.17;;
11024;SDS011;22890;51.820;8.682;2022-07-29T14:26:51;3.67;;;2.30;;
11024;SDS011;22890;51.820;8.682;2022-07-29T14:29:18;2.73;;;1.80;;
11024;SDS011;22890;51.820;8.682;2022-07-29T14:31:45;3.10;;;2.27;;
11024;SDS011;22890;51.820;8.682;2022-07-29T14:34:11;3.47;;;1.83;;
11024;SDS011;22890;51.820;8.682;2022-07-29T14:36:38;5.40;;;2.10;;
11024;SDS011;22890;51.820;8.682;2022-07-29T14:39:05;3.47;;;2.00;;
11024;SDS011;22890;51.820;8.682;2022-07-29T14:41:31;5.87;;;2.43;;
11024;SDS011;22890;51.820;8.682;2022-07-29T14:43:58;7.93;;;2.30;;
11024;SDS011;22890;51.820;8.682;2022-07-29T14:46:28;5.20;;;2.47;;
11024;SDS011;22890;51.820;8.682;2022-07-29T14:48:55;3.43;;;2.00;;
11024;SDS011;22890;51.820;8.682;2022-07-29T14:51:22;7.60;;;2.27;;
11024;SDS011;22890;51.820;8.682;2022-07-29T14:53:57;3.43;;;1.90;;
11024;SDS011;22890;51.820;8.682;2022-07-29T14:56:24;6.40;;;2.20;;
11024;SDS011;22890;51.820;8.682;2022-07-29T14:59:10;3.57;;;2.17;;
11024;SDS011;22890;51.820;8.682;2022-07-29T15:01:37;5.73;;;2.13;;
11024;SDS011;22890;51.820;8.682;2022-07-29T15:04:03;6.00;;;2.13;;
11024;SDS011;22890;51.820;8.682;2022-07-29T15:06:30;8.83;;;2.03;;
11024;SDS011;22890;51.820;8.682;2022-07-29T15:08:57;3.17;;;2.20;;
11024;SDS011;22890;51.820;8.682;2022-07-29T15:11:23;5.43;;;2.00;;
11024;SDS011;22890;51.820;8.682;2022-07-29T15:13:51;4.87;;;1.97;;
11024;SDS011;22890;51.820;8.682;2022-07-29T15:16:18;4.37;;;2.20;;
11024;SDS011;22890;51.820;8.682;2022-07-29T15:18:44;4.93;;;1.90;;
11024;SDS011;22890;51.820;8.682;2022-07-29T15:21:11;5.57;;;2.27;;
11024;SDS011;22890;51.820;8.682;2022-07-29T15:23:38;4.43;;;1.90;;
11024;SDS011;22890;51.820;8.682;2022-07-29T15:26:04;5.80;;;2.17;;
11024;SDS011;22890;51.820;8.682;2022-07-29T15:28:31;6.43;;;1.90;;
11024;SDS011;22890;51.820;8.682;2022-07-29T15:30:57;3.20;;;2.00;;
11024;SDS011;22890;51.820;8.682;2022-07-29T15:33:25;3.33;;;1.80;;
11024;SDS011;22890;51.820;8.682;2022-07-29T15:35:51;4.30;;;2.10;;
11024;SDS011;22890;51.820;8.682;2022-07-29T15:38:18;1.97;;;1.70;;
11024;SDS011;22890;51.820;8.682;2022-07-29T15:40:53;11.90;;;2.43;;
11024;SDS011;22890;51.820;8.682;2022-07-29T15:43:20;3.23;;;2.00;;
11024;SDS011;22890;51.820;8.682;2022-07-29T15:45:47;5.53;;;1.90;;
11024;SDS011;22890;51.820;8.682;2022-07-29T15:48:33;8.30;;;2.33;;
11024;SDS011;22890;51.820;8.682;2022-07-29T15:51:03;3.80;;;1.97;;
11024;SDS011;22890;51.820;8.682;2022-07-29T15:53:29;3.17;;;2.00;;
11024;SDS011;22890;51.820;8.682;2022-07-29T15:55:58;4.93;;;1.97;;
11024;SDS011;22890;51.820;8.682;2022-07-29T15:58:24;7.53;;;2.17;;
11024;SDS011;22890;51.820;8.682;2022-07-29T16:00:51;4.80;;;1.87;;
11024;SDS011;22890;51.820;8.682;2022-07-29T16:03:18;6.07;;;1.83;;